Terminal Aerodrome Forecast
Issued by NWS

Home | Current Version | Previous Version | Text Only | Print | Product List | Glossary On
Versions: 1 2 3 4 5 6 7 8 9 10 11 12 13 14 15 16 17 18
784
FTUS44 KLZK 262320
TAFLLQ
TAF
KLLQ 262320Z 2700/2724 22007KT P6SM -SHRA VCTS SCT050CB BKN100
     FM270800 16008KT P6SM VCTS BKN025 OVC050CB
     FM271200 15008KT 6SM BR OVC015
     FM271500 16010KT 6SM BR VCTS OVC025CB PROB30 2718/2724 3SM
      -TSRA BR OVC012CB=

USA.gov is the U.S. government's official web portal to all federal, state and local government web resources and services.